Time;durP1;ratioP1;P1;durP2;ratioP2;P2;SDS_P1;SDS_P2;PMS_P1;PMS_P2;Temp;Humidity;BMP_temperature;BMP_pressure;BME280_temperature;BME280_humidity;BME280_pressure;Samples;Min_cycle;Max_cycle;Signal;HPM_P1;HPM_P2
2022/04/01 00:01:22;;;;;;;50.17;24.50;;;;;;;;;;6240183;23;20019;-70
2022/04/01 00:03:48;;;;;;;46.17;24.50;;;;;;;;;;6242073;23;20051;-70
2022/04/01 00:06:13;;;;;;;49.03;24.80;;;;;;;;;;6215105;23;20404;-71
2022/04/01 00:08:39;;;;;;;48.78;27.13;;;;;;;;;;6242391;23;20039;-70
2022/04/01 00:11:05;;;;;;;51.33;30.77;;;;;;;;;;6216000;23;20095;-72
2022/04/01 00:13:31;;;;;;;48.55;24.60;;;;;;;;;;6243016;23;20016;-71
2022/04/01 00:15:58;;;;;;;45.35;23.60;;;;;;;;;;6242779;23;20019;-71
2022/04/01 00:18:25;;;;;;;47.03;24.17;;;;;;;;;;6242852;23;20491;-71
2022/04/01 00:20:51;;;;;;;52.60;26.45;;;;;;;;;;6190106;23;20012;-70
2022/04/01 00:23:17;;;;;;;45.17;24.50;;;;;;;;;;6242034;23;20103;-71
2022/04/01 00:25:43;;;;;;;43.08;23.67;;;;;;;;;;6214544;23;20531;-70
2022/04/01 00:28:10;;;;;;;44.13;23.48;;;;;;;;;;6241726;23;20008;-71
2022/04/01 00:30:38;;;;;;;29.85;16.63;;;;;;;;;;6215292;23;20012;-71
2022/04/01 00:33:08;;;;;;;34.55;18.73;;;;;;;;;;6190088;23;20016;-70
2022/04/01 01:32:32;;;;;;;46.88;23.92;;;;;;;;;;5126528;27;20579;-71
2022/04/01 01:34:59;;;;;;;39.03;21.48;;;;;;;;;;5093654;28;20082;-71
2022/04/01 01:37:24;;;;;;;41.53;19.85;;;;;;;;;;5050635;28;20072;-71
2022/04/01 01:39:51;;;;;;;41.95;22.65;;;;;;;;;;5067385;28;20031;-71
2022/04/01 01:42:17;;;;;;;31.17;18.15;;;;;;;;;;5032339;28;20047;-71
2022/04/01 01:44:43;;;;;;;39.05;19.60;;;;;;;;;;5065202;28;20033;-71
2022/04/01 01:47:09;;;;;;;44.95;24.48;;;;;;;;;;5030364;28;20032;-72
2022/04/01 01:49:36;;;;;;;45.92;24.63;;;;;;;;;;5030754;28;20033;-72
2022/04/01 01:54:52;;;;;;;47.70;23.25;;;;;;;;;;5065018;28;20041;-71
2022/04/01 01:57:20;;;;;;;48.20;25.20;;;;;;;;;;5030663;28;20049;-70
2022/04/01 01:59:47;;;;;;;32.40;17.15;;;;;;;;;;5052134;28;20032;-71
2022/04/01 02:02:13;;;;;;;37.55;21.00;;;;;;;;;;5049835;28;20552;-71
2022/04/01 02:04:39;;;;;;;39.28;22.27;;;;;;;;;;5066958;28;20036;-72
2022/04/01 02:07:05;;;;;;;37.28;18.58;;;;;;;;;;5066448;28;20037;-72
2022/04/01 02:09:31;;;;;;;32.65;19.00;;;;;;;;;;5050298;28;20525;-71
2022/04/01 02:11:57;;;;;;;36.13;19.52;;;;;;;;;;5084555;28;20028;-73
2022/04/01 02:14:23;;;;;;;33.72;17.27;;;;;;;;;;5084749;28;20089;-72
2022/04/01 02:16:50;;;;;;;35.00;18.35;;;;;;;;;;5049773;28;20028;-71
2022/04/01 02:19:21;;;;;;;40.80;21.88;;;;;;;;;;5066366;28;20047;-70
2022/04/01 02:21:50;;;;;;;35.05;21.30;;;;;;;;;;5052681;28;20049;-70
2022/04/01 02:24:17;;;;;;;44.90;24.25;;;;;;;;;;5046304;28;20094;-71
2022/04/01 02:26:45;;;;;;;47.92;24.13;;;;;;;;;;5046493;28;20087;-71
2022/04/01 02:29:12;;;;;;;55.47;26.10;;;;;;;;;;5013330;28;20037;-71
2022/04/01 02:31:58;;;;;;;59.00;29.65;;;;;;;;;;5041203;28;20052;-72
2022/04/01 02:34:57;;;;;;;65.35;32.00;;;;;;;;;;5050785;28;20064;-72
2022/04/01 02:37:25;;;;;;;54.47;24.38;;;;;;;;;;5016838;28;20060;-71
2022/04/01 02:39:53;;;;;;;60.35;29.58;;;;;;;;;;5033077;28;20059;-72
2022/04/01 02:42:22;;;;;;;58.08;26.55;;;;;;;;;;5016444;28;20041;-73
2022/04/01 02:44:48;;;;;;;52.80;24.30;;;;;;;;;;5033145;28;20592;-71
2022/04/01 02:47:14;;;;;;;63.72;28.50;;;;;;;;;;5032396;28;20045;-71
2022/04/01 02:49:43;;;;;;;63.90;31.17;;;;;;;;;;5016888;28;20595;-72
2022/04/01 02:52:18;;;;;;;52.78;23.42;;;;;;;;;;5016265;28;20396;-73
2022/04/01 02:54:45;;;;;;;52.72;24.17;;;;;;;;;;5051161;28;20407;-73
2022/04/01 02:57:11;;;;;;;67.18;30.40;;;;;;;;;;5015185;28;20140;-72
2022/04/01 02:59:37;;;;;;;55.85;28.27;;;;;;;;;;5013074;28;20033;-71
2022/04/01 03:02:05;;;;;;;60.10;27.25;;;;;;;;;;5017889;28;20464;-72
2022/04/01 03:04:31;;;;;;;47.35;22.23;;;;;;;;;;5013074;28;20057;-71
2022/04/01 03:07:02;;;;;;;57.60;27.02;;;;;;;;;;5030319;28;20048;-71
2022/04/01 03:09:30;;;;;;;46.95;23.42;;;;;;;;;;5013093;28;20034;-71
2022/04/01 03:12:22;;;;;;;31.48;13.82;;;;;;;;;;5009244;28;20042;-72
2022/04/01 03:14:49;;;;;;;46.22;21.17;;;;;;;;;;5030810;28;20493;-73
2022/04/01 03:17:50;;;;;;;44.20;18.90;;;;;;;;;;4959365;28;20093;-75
2022/04/01 03:21:02;;;;;;;49.17;20.13;;;;;;;;;;5012162;28;20640;-74
2022/04/01 03:23:28;;;;;;;78.88;31.58;;;;;;;;;;5016350;28;20033;-74
2022/04/01 03:25:58;;;;;;;67.18;22.98;;;;;;;;;;4999999;28;20047;-73
2022/04/01 03:28:34;;;;;;;71.53;31.17;;;;;;;;;;5049805;28;20063;-73
2022/04/01 03:31:04;;;;;;;60.45;27.77;;;;;;;;;;5031424;28;20057;-72
2022/04/01 03:33:33;;;;;;;55.03;21.88;;;;;;;;;;5015945;28;20040;-72
2022/04/01 03:35:59;;;;;;;54.20;24.58;;;;;;;;;;5031933;28;20037;-72
2022/04/01 03:38:28;;;;;;;49.97;22.05;;;;;;;;;;5031962;28;20053;-72
2022/04/01 03:40:56;;;;;;;43.28;22.20;;;;;;;;;;5031757;28;20045;-72
2022/04/01 03:43:24;;;;;;;69.45;31.27;;;;;;;;;;5014115;28;20033;-73
2022/04/01 03:45:52;;;;;;;51.72;23.95;;;;;;;;;;5021289;28;20042;-72
2022/04/01 03:48:20;;;;;;;56.55;28.70;;;;;;;;;;5028099;28;20112;-72
2022/04/01 03:50:49;;;;;;;42.25;17.52;;;;;;;;;;5029586;28;20114;-73
2022/04/01 03:53:16;;;;;;;46.40;23.45;;;;;;;;;;5024927;28;20044;-73
2022/04/01 03:55:42;;;;;;;51.85;24.48;;;;;;;;;;5021271;28;20041;-72
2022/04/01 03:58:30;;;;;;;39.50;20.70;;;;;;;;;;5014486;28;20033;-74
2022/04/01 04:01:16;;;;;;;40.45;20.80;;;;;;;;;;5029161;28;20052;-73
2022/04/01 04:03:42;;;;;;;53.80;26.92;;;;;;;;;;5029147;28;20033;-73
2022/04/01 04:06:10;;;;;;;44.95;23.42;;;;;;;;;;5028019;28;20504;-73
2022/04/01 04:08:37;;;;;;;44.70;21.25;;;;;;;;;;5029368;28;20033;-73
2022/04/01 04:11:04;;;;;;;45.78;27.17;;;;;;;;;;5011697;28;20655;-73
2022/04/01 04:13:45;;;;;;;41.83;22.45;;;;;;;;;;4980911;28;20519;-73
2022/04/01 04:16:19;;;;;;;40.85;23.67;;;;;;;;;;5011295;28;20060;-74
2022/04/01 04:18:51;;;;;;;32.65;17.30;;;;;;;;;;5027863;28;20037;-73
2022/04/01 04:21:18;;;;;;;37.80;19.20;;;;;;;;;;5027633;28;20475;-73
2022/04/01 04:23:46;;;;;;;40.13;23.05;;;;;;;;;;5033883;28;20098;-73
2022/04/01 04:26:15;;;;;;;41.22;24.50;;;;;;;;;;5014658;28;20493;-73
2022/04/01 04:28:48;;;;;;;35.13;21.15;;;;;;;;;;5031272;28;20036;-74
2022/04/01 04:32:03;;;;;;;35.08;22.05;;;;;;;;;;5018398;28;20080;-74
2022/04/01 04:34:35;;;;;;;37.88;23.02;;;;;;;;;;4981368;28;20068;-73
2022/04/01 04:37:01;;;;;;;28.48;17.33;;;;;;;;;;5008513;28;20084;-75
2022/04/01 04:39:31;;;;;;;26.67;17.40;;;;;;;;;;5008075;28;20620;-73
2022/04/01 04:41:57;;;;;;;29.98;19.23;;;;;;;;;;5007922;28;20119;-73
2022/04/01 04:44:25;;;;;;;24.15;16.35;;;;;;;;;;4991504;28;20038;-73
2022/04/01 04:46:51;;;;;;;27.60;17.65;;;;;;;;;;5008056;28;20077;-75
2022/04/01 04:49:21;;;;;;;18.48;13.30;;;;;;;;;;5007708;28;20046;-74
2022/04/01 04:51:48;;;;;;;21.58;15.65;;;;;;;;;;5007917;28;20037;-74
2022/04/01 04:54:27;;;;;;;27.25;19.40;;;;;;;;;;4993168;28;20128;-73
2022/04/01 04:57:15;;;;;;;22.60;16.40;;;;;;;;;;5007470;28;20030;-73
2022/04/01 04:59:42;;;;;;;18.83;16.27;;;;;;;;;;5008933;28;20500;-75
2022/04/01 05:02:16;;;;;;;16.95;13.15;;;;;;;;;;5007544;28;20042;-73
2022/04/01 05:04:46;;;;;;;22.27;13.85;;;;;;;;;;4991565;28;20180;-73
2022/04/01 05:07:22;;;;;;;19.38;16.38;;;;;;;;;;5008248;28;20068;-73
2022/04/01 05:10:08;;;;;;;17.92;14.23;;;;;;;;;;5008064;28;20038;-74
2022/04/01 05:12:37;;;;;;;17.92;12.45;;;;;;;;;;5007816;28;20034;-73
2022/04/01 05:15:31;;;;;;;16.73;14.95;;;;;;;;;;5009750;28;20034;-74
2022/04/01 05:18:30;;;;;;;17.75;14.25;;;;;;;;;;5009653;28;20038;-74
2022/04/01 05:21:19;;;;;;;16.55;14.07;;;;;;;;;;5012388;28;20048;-73
2022/04/01 05:27:28;;;;;;;10.48;9.20;;;;;;;;;;5013969;28;20481;-74
2022/04/01 05:30:25;;;;;;;18.83;16.63;;;;;;;;;;5007101;28;20488;-73
2022/04/01 05:32:59;;;;;;;17.70;13.60;;;;;;;;;;5015248;28;20587;-73
2022/04/01 05:35:26;;;;;;;18.27;13.48;;;;;;;;;;5018835;28;20028;-74
2022/04/01 05:37:53;;;;;;;12.75;10.90;;;;;;;;;;5031630;28;20037;-73
2022/04/01 05:40:19;;;;;;;8.75;7.88;;;;;;;;;;5013641;28;20029;-74
2022/04/01 05:42:46;;;;;;;11.13;9.70;;;;;;;;;;5014684;28;20036;-74
2022/04/01 05:45:30;;;;;;;7.28;5.55;;;;;;;;;;5040834;28;20032;-74
2022/04/01 05:47:57;;;;;;;7.35;6.68;;;;;;;;;;5045315;28;20049;-73
2022/04/01 05:50:26;;;;;;;12.40;11.35;;;;;;;;;;5045128;28;20097;-73
2022/04/01 05:52:53;;;;;;;9.68;8.75;;;;;;;;;;5028848;28;20036;-72
2022/04/01 05:55:24;;;;;;;13.25;12.05;;;;;;;;;;5028616;28;20041;-74
2022/04/01 05:57:52;;;;;;;13.07;9.38;;;;;;;;;;5018259;28;20033;-74
2022/04/01 06:00:18;;;;;;;9.43;8.50;;;;;;;;;;5018777;28;20041;-72
2022/04/01 06:02:48;;;;;;;10.93;9.82;;;;;;;;;;5030209;28;20194;-74
2022/04/01 06:05:20;;;;;;;11.73;10.68;;;;;;;;;;5037416;28;20127;-75
2022/04/01 06:07:50;;;;;;;8.73;7.93;;;;;;;;;;5018289;28;20044;-74
2022/04/01 06:10:22;;;;;;;12.05;10.85;;;;;;;;;;5016310;28;20068;-74
2022/04/01 06:13:10;;;;;;;12.48;10.35;;;;;;;;;;5052769;28;20118;-72
2022/04/01 06:16:10;;;;;;;11.27;10.18;;;;;;;;;;5022905;28;20049;-75
2022/04/01 06:19:07;;;;;;;13.07;11.82;;;;;;;;;;5033851;28;20079;-72
2022/04/01 06:21:38;;;;;;;10.30;9.40;;;;;;;;;;5050664;28;20131;-73
2022/04/01 06:24:30;;;;;;;12.55;11.50;;;;;;;;;;5050946;28;20136;-74
2022/04/01 06:27:00;;;;;;;10.77;9.82;;;;;;;;;;5011108;28;20037;-73
2022/04/01 06:29:37;;;;;;;11.00;8.95;;;;;;;;;;5033848;28;20043;-75
2022/04/01 06:32:05;;;;;;;10.07;9.32;;;;;;;;;;5052323;28;20107;-75
2022/04/01 06:34:45;;;;;;;8.90;8.15;;;;;;;;;;5051265;28;20087;-78
2022/04/01 06:37:33;;;;;;;11.23;7.95;;;;;;;;;;5037636;28;20041;-77
2022/04/01 06:40:02;;;;;;;10.68;9.77;;;;;;;;;;5052651;28;20051;-76
2022/04/01 06:42:39;;;;;;;9.02;8.15;;;;;;;;;;5035644;28;20044;-76
2022/04/01 06:45:24;;;;;;;10.68;9.63;;;;;;;;;;5051762;28;20107;-77
2022/04/01 06:48:09;;;;;;;10.80;9.90;;;;;;;;;;5049752;28;20385;-76
2022/04/01 06:50:54;;;;;;;7.75;7.05;;;;;;;;;;5036760;28;20060;-75
2022/04/01 06:53:41;;;;;;;11.40;10.45;;;;;;;;;;5006360;28;20045;-76
2022/04/01 06:56:26;;;;;;;7.82;7.13;;;;;;;;;;5051346;28;20067;-77
2022/04/01 06:58:53;;;;;;;7.97;7.32;;;;;;;;;;5033918;28;20044;-76
2022/04/01 07:01:19;;;;;;;5.88;5.38;;;;;;;;;;5050552;28;20033;-76
2022/04/01 07:03:45;;;;;;;10.60;9.70;;;;;;;;;;5051194;28;20385;-77
2022/04/01 07:06:11;;;;;;;10.80;9.88;;;;;;;;;;5051051;28;20040;-76
2022/04/01 07:08:37;;;;;;;6.05;5.65;;;;;;;;;;5033438;28;20040;-75
2022/04/01 07:11:03;;;;;;;10.65;9.75;;;;;;;;;;5051449;28;20445;-76
2022/04/01 07:13:29;;;;;;;10.15;9.25;;;;;;;;;;5050861;28;20060;-76
2022/04/01 07:15:55;;;;;;;8.98;8.13;;;;;;;;;;5051359;28;20489;-76
2022/04/01 07:18:22;;;;;;;9.88;9.07;;;;;;;;;;5031686;28;20045;-78
2022/04/01 07:20:48;;;;;;;10.40;9.60;;;;;;;;;;5051054;28;20678;-77
2022/04/01 07:23:15;;;;;;;9.27;7.45;;;;;;;;;;5051671;28;20404;-77
2022/04/01 07:25:40;;;;;;;9.18;8.40;;;;;;;;;;5049617;28;20032;-76
2022/04/01 07:28:09;;;;;;;8.00;7.40;;;;;;;;;;5033005;28;20413;-79
2022/04/01 07:30:34;;;;;;;9.88;9.18;;;;;;;;;;5050553;28;20106;-77
2022/04/01 07:33:00;;;;;;;6.97;6.38;;;;;;;;;;5051802;28;20037;-77
2022/04/01 07:35:29;;;;;;;8.98;8.32;;;;;;;;;;5032682;28;20035;-75
2022/04/01 07:37:55;;;;;;;7.28;6.68;;;;;;;;;;5031778;28;20504;-76
2022/04/01 07:40:22;;;;;;;7.20;6.50;;;;;;;;;;5032512;28;20040;-77
2022/04/01 07:42:48;;;;;;;7.25;6.65;;;;;;;;;;5050522;28;20033;-76
2022/04/01 07:45:14;;;;;;;4.85;4.45;;;;;;;;;;5050408;28;20064;-76
2022/04/01 07:47:44;;;;;;;5.93;5.43;;;;;;;;;;5049159;28;20474;-78
2022/04/01 07:50:10;;;;;;;7.07;6.47;;;;;;;;;;5050441;28;20040;-75
2022/04/01 07:52:43;;;;;;;7.00;6.47;;;;;;;;;;5050229;28;20033;-74
2022/04/01 07:55:09;;;;;;;6.85;6.28;;;;;;;;;;5050427;28;20025;-74
2022/04/01 07:57:36;;;;;;;7.97;7.03;;;;;;;;;;5049685;28;20036;-76
2022/04/01 08:00:06;;;;;;;7.53;6.93;;;;;;;;;;5012798;28;20087;-75
2022/04/01 08:02:39;;;;;;;6.07;5.40;;;;;;;;;;5046691;28;20116;-75
2022/04/01 08:05:06;;;;;;;5.55;5.05;;;;;;;;;;5050861;28;20044;-75
2022/04/01 08:07:32;;;;;;;6.20;5.68;;;;;;;;;;5050683;28;20044;-75
2022/04/01 08:10:00;;;;;;;7.72;7.03;;;;;;;;;;5050380;28;20107;-76
2022/04/01 08:12:26;;;;;;;7.05;6.18;;;;;;;;;;5016108;28;20689;-73
2022/04/01 08:14:52;;;;;;;6.18;4.78;;;;;;;;;;5050233;28;20037;-72
2022/04/01 08:17:20;;;;;;;5.32;4.30;;;;;;;;;;5032243;28;20036;-74
2022/04/01 08:19:46;;;;;;;5.30;4.90;;;;;;;;;;5050035;28;20051;-74
2022/04/01 08:22:13;;;;;;;5.63;4.75;;;;;;;;;;5031762;28;20049;-75
2022/04/01 08:24:41;;;;;;;4.68;4.38;;;;;;;;;;5049330;28;20896;-74
2022/04/01 08:27:08;;;;;;;5.25;4.85;;;;;;;;;;5049497;28;20063;-74
2022/04/01 08:29:36;;;;;;;5.40;5.03;;;;;;;;;;5014392;28;20127;-73
2022/04/01 08:32:05;;;;;;;5.20;4.88;;;;;;;;;;5049647;28;20049;-74
2022/04/01 08:34:31;;;;;;;5.25;4.85;;;;;;;;;;5046927;28;20033;-74
2022/04/01 08:36:57;;;;;;;4.85;4.43;;;;;;;;;;5049519;28;20048;-74
2022/04/01 08:39:23;;;;;;;4.70;4.32;;;;;;;;;;5031089;28;20039;-75
2022/04/01 08:41:49;;;;;;;6.07;4.90;;;;;;;;;;5030327;28;20102;-75
2022/04/01 08:44:15;;;;;;;4.78;4.38;;;;;;;;;;5048864;28;20029;-75
2022/04/01 08:46:41;;;;;;;5.22;4.82;;;;;;;;;;5031848;28;20040;-75
2022/04/01 08:49:07;;;;;;;5.32;4.93;;;;;;;;;;5048104;28;20032;-79
2022/04/01 08:51:33;;;;;;;5.60;5.10;;;;;;;;;;5049132;28;20095;-75
2022/04/01 08:53:59;;;;;;;5.18;4.78;;;;;;;;;;5031868;28;20029;-76
2022/04/01 08:56:29;;;;;;;4.88;4.47;;;;;;;;;;5047779;28;20043;-74
2022/04/01 08:58:58;;;;;;;4.53;4.22;;;;;;;;;;5048873;28;20033;-72
2022/04/01 09:01:26;;;;;;;4.00;3.70;;;;;;;;;;5044236;28;20052;-72
2022/04/01 09:03:57;;;;;;;4.43;4.13;;;;;;;;;;5009927;28;20526;-73
2022/04/01 09:06:23;;;;;;;4.60;4.15;;;;;;;;;;5023376;28;20178;-72
2022/04/01 09:08:49;;;;;;;6.15;5.00;;;;;;;;;;5020359;28;20033;-72
2022/04/01 09:11:18;;;;;;;3.88;3.58;;;;;;;;;;5029066;28;20044;-70
2022/04/01 09:13:50;;;;;;;6.20;5.70;;;;;;;;;;5029593;28;20041;-73
2022/04/01 09:16:39;;;;;;;5.60;5.10;;;;;;;;;;5029980;28;20037;-73
2022/04/01 09:19:05;;;;;;;6.82;6.22;;;;;;;;;;5028852;28;20036;-73
2022/04/01 09:21:39;;;;;;;7.38;6.40;;;;;;;;;;5046065;28;20045;-73
2022/04/01 09:24:05;;;;;;;6.93;6.32;;;;;;;;;;5046542;28;20037;-73
2022/04/01 09:26:32;;;;;;;6.25;5.65;;;;;;;;;;5047637;28;20037;-73
2022/04/01 09:28:59;;;;;;;6.03;5.43;;;;;;;;;;5046593;28;20037;-73
2022/04/01 09:31:25;;;;;;;5.22;4.72;;;;;;;;;;5047437;28;20053;-74
2022/04/01 09:33:52;;;;;;;6.82;6.22;;;;;;;;;;5030625;28;20496;-74
2022/04/01 09:36:19;;;;;;;6.55;4.97;;;;;;;;;;5030777;28;20037;-73
2022/04/01 09:38:55;;;;;;;5.78;5.13;;;;;;;;;;5020896;28;20043;-74
2022/04/01 09:41:23;;;;;;;5.75;5.35;;;;;;;;;;5068218;28;20040;-74
2022/04/01 09:43:50;;;;;;;6.20;5.70;;;;;;;;;;5054334;28;20028;-74
2022/04/01 09:46:23;;;;;;;5.18;4.68;;;;;;;;;;5071400;28;20101;-75
2022/04/01 09:48:49;;;;;;;5.45;4.97;;;;;;;;;;5071218;28;20511;-74
2022/04/01 09:51:18;;;;;;;3.67;3.45;;;;;;;;;;5071181;28;20048;-74
2022/04/01 09:53:54;;;;;;;6.45;5.47;;;;;;;;;;5037700;28;20040;-74
2022/04/01 09:56:39;;;;;;;4.78;4.40;;;;;;;;;;5072433;28;20033;-74
2022/04/01 09:59:05;;;;;;;5.05;4.65;;;;;;;;;;5072465;28;20036;-74
2022/04/01 10:01:35;;;;;;;4.93;4.60;;;;;;;;;;5070797;28;20087;-74
2022/04/01 10:04:01;;;;;;;5.32;4.93;;;;;;;;;;5072595;28;20032;-75
2022/04/01 10:06:28;;;;;;;5.10;4.70;;;;;;;;;;5053312;28;20060;-76
2022/04/01 10:08:55;;;;;;;3.95;3.65;;;;;;;;;;5034249;28;20080;-74
2022/04/01 10:11:22;;;;;;;5.28;4.63;;;;;;;;;;5052109;28;20045;-75
2022/04/01 10:13:49;;;;;;;6.05;5.50;;;;;;;;;;5050059;28;20037;-74
2022/04/01 10:16:15;;;;;;;6.03;5.43;;;;;;;;;;5051448;28;20087;-74
2022/04/01 10:18:41;;;;;;;6.28;5.78;;;;;;;;;;5052132;28;20040;-74
2022/04/01 10:21:07;;;;;;;5.80;5.35;;;;;;;;;;5032623;28;20076;-74
2022/04/01 10:23:34;;;;;;;6.18;5.57;;;;;;;;;;5051436;28;20485;-74
2022/04/01 10:26:01;;;;;;;6.25;5.75;;;;;;;;;;5033810;28;20065;-74
2022/04/01 10:28:27;;;;;;;5.85;5.25;;;;;;;;;;5013960;28;20033;-75
2022/04/01 10:30:54;;;;;;;6.35;5.85;;;;;;;;;;5049439;28;20196;-73
2022/04/01 10:33:27;;;;;;;6.90;6.32;;;;;;;;;;5050502;28;20028;-74
2022/04/01 10:35:55;;;;;;;7.75;5.43;;;;;;;;;;5051856;28;20144;-73
2022/04/01 10:38:23;;;;;;;6.63;6.13;;;;;;;;;;5055110;28;20039;-73
2022/04/01 10:40:50;;;;;;;7.10;6.60;;;;;;;;;;5077245;28;20055;-74
2022/04/01 10:43:17;;;;;;;6.35;5.85;;;;;;;;;;5060202;28;20036;-75
2022/04/01 10:45:57;;;;;;;5.90;5.50;;;;;;;;;;5042790;28;20036;-76
2022/04/01 10:54:12;;;;;;;5.53;5.13;;;;;;;;;;5019570;28;20033;-75
2022/04/01 10:56:41;;;;;;;5.60;5.20;;;;;;;;;;5014469;28;20045;-76
2022/04/01 10:59:15;;;;;;;5.82;5.38;;;;;;;;;;5025343;28;20081;-75
2022/04/01 11:01:43;;;;;;;6.00;5.60;;;;;;;;;;5032103;28;20041;-74
2022/04/01 11:04:12;;;;;;;5.00;4.60;;;;;;;;;;5031664;28;20030;-74
2022/04/01 11:06:56;;;;;;;4.32;4.03;;;;;;;;;;5031563;28;20425;-74
2022/04/01 11:09:33;;;;;;;3.70;3.40;;;;;;;;;;5031404;28;20041;-73
2022/04/01 11:12:15;;;;;;;5.68;4.72;;;;;;;;;;4997034;28;20133;-73
2022/04/01 11:17:55;;;;;;;5.95;4.85;;;;;;;;;;5031066;28;20045;-73
2022/04/01 11:20:28;;;;;;;6.30;5.80;;;;;;;;;;5027630;28;20045;-74
2022/04/01 11:22:59;;;;;;;6.20;5.28;;;;;;;;;;5031584;28;20072;-74
2022/04/01 11:25:25;;;;;;;5.75;5.35;;;;;;;;;;5031553;28;20112;-74
2022/04/01 11:27:56;;;;;;;4.85;4.55;;;;;;;;;;5038118;28;20032;-74
2022/04/01 11:30:24;;;;;;;4.78;4.47;;;;;;;;;;5032390;28;20043;-73
2022/04/01 11:32:53;;;;;;;5.15;4.80;;;;;;;;;;5050951;28;20076;-74
2022/04/01 11:35:23;;;;;;;6.70;3.83;;;;;;;;;;5052999;28;20195;-74
2022/04/01 11:37:50;;;;;;;3.85;3.53;;;;;;;;;;5038992;28;20039;-73
2022/04/01 11:40:16;;;;;;;4.40;4.10;;;;;;;;;;5062428;28;20082;-73
2022/04/01 11:42:48;;;;;;;4.40;4.10;;;;;;;;;;5050989;28;20045;-72
2022/04/01 11:45:14;;;;;;;4.30;3.95;;;;;;;;;;5023019;28;20091;-74
2022/04/01 11:47:40;;;;;;;4.15;3.80;;;;;;;;;;5020761;28;20037;-73
2022/04/01 11:50:11;;;;;;;4.00;3.70;;;;;;;;;;5040430;28;20078;-73
2022/04/01 11:52:47;;;;;;;3.50;3.30;;;;;;;;;;5050039;28;20119;-72
2022/04/01 11:55:20;;;;;;;2.95;2.75;;;;;;;;;;5051085;28;20041;-74
2022/04/01 11:57:47;;;;;;;3.30;3.10;;;;;;;;;;5032726;28;20039;-73
2022/04/01 12:00:15;;;;;;;3.70;3.47;;;;;;;;;;5033715;28;20063;-73
2022/04/01 12:02:41;;;;;;;4.82;4.47;;;;;;;;;;5050724;28;20076;-73
2022/04/01 12:05:09;;;;;;;4.65;4.35;;;;;;;;;;5032218;28;20036;-75
2022/04/01 12:10:26;;;;;;;4.30;3.90;;;;;;;;;;5048637;28;20032;-74
2022/04/01 12:12:56;;;;;;;4.03;3.72;;;;;;;;;;5033610;28;20043;-74
2022/04/01 12:15:37;;;;;;;3.78;3.47;;;;;;;;;;5034203;28;20025;-73
2022/04/01 12:18:05;;;;;;;;;;;;;;;;;;5050926;28;20048;-73
2022/04/01 12:20:40;;;;;;;4.28;3.88;;;;;;;;;;5050003;28;19936;-73
2022/04/01 12:23:06;;;;;;;4.25;3.95;;;;;;;;;;5050543;28;20059;-74
2022/04/01 12:25:33;;;;;;;5.05;4.03;;;;;;;;;;5032738;28;20033;-73
2022/04/01 12:28:01;;;;;;;4.00;3.70;;;;;;;;;;5049702;28;20130;-73
2022/04/01 12:30:28;;;;;;;4.10;3.80;;;;;;;;;;5031546;28;20598;-74
2022/04/01 12:32:59;;;;;;;5.35;4.07;;;;;;;;;;5050033;28;20065;-73
2022/04/01 12:35:25;;;;;;;4.60;4.30;;;;;;;;;;5049457;28;20037;-73
2022/04/01 12:38:03;;;;;;;4.93;4.63;;;;;;;;;;5050797;28;20067;-73
2022/04/01 12:40:45;;;;;;;3.47;3.28;;;;;;;;;;5027206;28;20076;-74
2022/04/01 12:43:30;;;;;;;6.82;4.10;;;;;;;;;;5051405;28;20076;-72
2022/04/01 12:46:19;;;;;;;4.15;3.85;;;;;;;;;;5050739;28;20061;-72
2022/04/01 12:48:52;;;;;;;5.05;4.35;;;;;;;;;;5042645;28;20094;-73
2022/04/01 12:51:27;;;;;;;4.05;3.25;;;;;;;;;;5050709;28;20035;-73
2022/04/01 12:53:54;;;;;;;3.95;3.20;;;;;;;;;;5050655;28;20064;-72
2022/04/01 12:56:21;;;;;;;6.97;3.17;;;;;;;;;;5045816;28;20064;-71
2022/04/01 12:58:49;;;;;;;4.38;3.95;;;;;;;;;;5030115;28;20111;-74
2022/04/01 13:01:18;;;;;;;3.88;3.58;;;;;;;;;;5016362;28;20037;-73
2022/04/01 13:03:45;;;;;;;4.18;3.78;;;;;;;;;;5050463;28;20087;-73
2022/04/01 13:06:11;;;;;;;3.38;3.17;;;;;;;;;;5053750;28;20044;-74
2022/04/01 13:08:37;;;;;;;4.55;2.97;;;;;;;;;;5046257;28;20033;-74
2022/04/01 13:11:10;;;;;;;3.95;3.65;;;;;;;;;;5065112;28;20044;-73
2022/04/01 13:13:36;;;;;;;4.03;3.67;;;;;;;;;;5014903;28;20025;-75
2022/04/01 13:16:02;;;;;;;3.92;3.47;;;;;;;;;;5046393;28;20614;-74
2022/04/01 13:18:30;;;;;;;3.70;3.50;;;;;;;;;;5052131;28;20025;-73
2022/04/01 13:20:56;;;;;;;4.32;3.90;;;;;;;;;;5053758;28;20048;-74
2022/04/01 13:23:22;;;;;;;4.43;4.07;;;;;;;;;;5063381;28;20242;-73
2022/04/01 13:25:48;;;;;;;4.30;4.00;;;;;;;;;;5030989;28;20032;-73
2022/04/01 13:28:15;;;;;;;3.83;3.53;;;;;;;;;;5058216;28;20660;-72
2022/04/01 13:30:40;;;;;;;4.20;3.80;;;;;;;;;;5049814;28;20093;-73
2022/04/01 13:33:07;;;;;;;4.28;3.97;;;;;;;;;;5050300;28;20054;-72
2022/04/01 13:35:33;;;;;;;5.72;4.43;;;;;;;;;;5059762;28;20060;-73
2022/04/01 13:37:59;;;;;;;4.00;3.70;;;;;;;;;;5037702;28;20042;-73
2022/04/01 13:40:25;;;;;;;4.07;3.78;;;;;;;;;;5040447;28;20036;-73
2022/04/01 13:42:52;;;;;;;4.93;3.30;;;;;;;;;;5039072;28;20094;-74
2022/04/01 13:45:18;;;;;;;4.20;3.40;;;;;;;;;;5038488;28;20025;-72
2022/04/01 13:47:44;;;;;;;4.35;3.70;;;;;;;;;;5037531;28;20091;-74
2022/04/01 13:50:10;;;;;;;4.15;3.83;;;;;;;;;;5043400;28;20032;-75
2022/04/01 13:52:36;;;;;;;4.20;3.90;;;;;;;;;;5044723;28;20036;-73
2022/04/01 13:55:03;;;;;;;4.15;3.85;;;;;;;;;;5044429;28;20033;-74
2022/04/01 13:57:29;;;;;;;3.65;3.45;;;;;;;;;;5015144;28;20106;-73
2022/04/01 13:59:55;;;;;;;4.25;3.22;;;;;;;;;;5027077;28;20039;-72
2022/04/01 14:02:21;;;;;;;4.20;3.90;;;;;;;;;;5026832;28;20041;-74
2022/04/01 14:04:47;;;;;;;5.28;3.85;;;;;;;;;;5050125;28;20032;-74
2022/04/01 14:07:13;;;;;;;2.80;2.60;;;;;;;;;;5069796;28;20033;-73
2022/04/01 14:09:40;;;;;;;3.45;3.25;;;;;;;;;;5069645;28;20090;-73
2022/04/01 14:12:06;;;;;;;4.10;3.70;;;;;;;;;;5068255;28;20189;-75
2022/04/01 14:14:32;;;;;;;4.03;3.60;;;;;;;;;;5032288;28;20025;-73
2022/04/01 14:16:58;;;;;;;4.43;3.50;;;;;;;;;;5050552;28;20090;-74
2022/04/01 14:19:24;;;;;;;3.72;3.38;;;;;;;;;;5049885;28;20029;-73
2022/04/01 14:21:50;;;;;;;2.90;2.60;;;;;;;;;;5050036;28;20092;-72
2022/04/01 14:24:16;;;;;;;3.80;3.50;;;;;;;;;;5031912;28;20025;-72
2022/04/01 14:26:42;;;;;;;4.30;4.00;;;;;;;;;;5028534;28;20048;-72
2022/04/01 14:31:58;;;;;;;3.75;3.40;;;;;;;;;;5037549;28;20601;-73
2022/04/01 14:34:25;;;;;;;3.83;3.53;;;;;;;;;;5053175;28;20106;-72
2022/04/01 14:36:51;;;;;;;3.38;3.05;;;;;;;;;;5033111;28;20866;-73
2022/04/01 14:39:17;;;;;;;3.63;3.33;;;;;;;;;;5028596;28;20033;-72
2022/04/01 14:41:44;;;;;;;4.88;3.13;;;;;;;;;;5071288;28;20053;-73
2022/04/01 14:44:10;;;;;;;4.68;2.72;;;;;;;;;;5070871;28;20036;-73
2022/04/01 14:46:36;;;;;;;3.42;3.22;;;;;;;;;;5071052;28;20051;-72
2022/04/01 14:49:03;;;;;;;3.28;2.97;;;;;;;;;;5066684;28;20032;-73
2022/04/01 14:51:30;;;;;;;3.60;3.30;;;;;;;;;;5030988;28;20033;-73
2022/04/01 14:53:56;;;;;;;2.85;2.65;;;;;;;;;;5030959;28;20041;-73
2022/04/01 14:56:22;;;;;;;2.88;2.67;;;;;;;;;;5030797;28;20171;-73
2022/04/01 14:58:48;;;;;;;2.75;2.63;;;;;;;;;;5034883;28;20045;-73
2022/04/01 15:01:14;;;;;;;3.60;3.30;;;;;;;;;;5048135;28;20049;-73
2022/04/01 15:03:40;;;;;;;2.63;2.45;;;;;;;;;;5032744;28;20040;-72
2022/04/01 15:06:06;;;;;;;2.70;2.50;;;;;;;;;;5032992;28;20044;-73
2022/04/01 15:08:31;;;;;;;3.20;3.00;;;;;;;;;;5032336;28;20114;-73
2022/04/01 15:10:58;;;;;;;3.90;2.95;;;;;;;;;;5050617;28;20112;-72
2022/04/01 15:13:23;;;;;;;2.90;2.55;;;;;;;;;;5050437;28;20025;-73
2022/04/01 15:15:49;;;;;;;3.83;3.00;;;;;;;;;;5030405;28;20167;-73
2022/04/01 15:18:15;;;;;;;3.15;2.95;;;;;;;;;;5030339;28;20068;-74
2022/04/01 15:20:42;;;;;;;3.28;3.08;;;;;;;;;;5012432;28;20038;-73
2022/04/01 15:23:08;;;;;;;3.30;2.92;;;;;;;;;;4996614;28;20040;-73
2022/04/01 15:25:34;;;;;;;2.67;2.55;;;;;;;;;;5030694;28;20037;-73
2022/04/01 15:28:03;;;;;;;2.10;2.00;;;;;;;;;;5048597;28;20044;-73
2022/04/01 15:30:30;;;;;;;3.15;2.95;;;;;;;;;;5032207;28;20048;-73
2022/04/01 15:32:56;;;;;;;3.20;2.85;;;;;;;;;;5050400;28;20052;-72
2022/04/01 15:35:22;;;;;;;2.80;2.60;;;;;;;;;;5049774;28;20036;-73
2022/04/01 15:38:00;;;;;;;3.10;2.90;;;;;;;;;;5050490;28;20029;-73
2022/04/01 15:40:26;;;;;;;2.90;2.70;;;;;;;;;;4996241;28;20059;-73
2022/04/01 15:42:52;;;;;;;4.13;2.38;;;;;;;;;;5012732;28;20577;-73
2022/04/01 15:45:35;;;;;;;3.75;2.75;;;;;;;;;;5028757;28;20041;-73
2022/04/01 15:48:06;;;;;;;2.58;2.40;;;;;;;;;;5014194;28;20116;-73
2022/04/01 15:50:33;;;;;;;3.40;3.17;;;;;;;;;;5029131;28;20043;-72
2022/04/01 15:53:02;;;;;;;3.10;2.90;;;;;;;;;;5028823;28;20044;-73
2022/04/01 15:55:29;;;;;;;2.63;2.42;;;;;;;;;;5031614;28;20523;-73
2022/04/01 15:57:55;;;;;;;3.53;2.72;;;;;;;;;;5016265;28;20038;-72
2022/04/01 16:00:22;;;;;;;3.05;2.85;;;;;;;;;;5014660;28;20412;-72
2022/04/01 16:02:53;;;;;;;2.83;2.60;;;;;;;;;;5048553;28;20066;-73
2022/04/01 16:05:19;;;;;;;3.38;3.08;;;;;;;;;;5032106;28;20052;-74
2022/04/01 16:07:55;;;;;;;3.47;2.90;;;;;;;;;;5068830;28;20050;-73